Content
SEND FEEDBACK

Daily
Averages
Monthly
Summary
Philippines

QUEZON CITY, PHILIPPINES


Home > Asia > Philippines
Elevation: 46 meters     Latitude: 14 39N     Longitude: 121 03E

WEATHER
 
SELECT A DAY
Number of Records: 176,976;   Date Range: 7/1/96 - 10/19/14
 
SHARE

PRINT THIS DATA

[ ← Previous Day ]
WEATHER ALMANAC - 12 OCTOBER, 2013
[ Next Day → ]
[ °F ]   °C
Weather ElementAverageHighLow
Temperature26.3 °C30 °C (2:00 pm)24 °C (5:00 am)
Dewpoint25.5 °C27 °C (12:00 am)24 °C (5:00 am)
Humidity95 %100 % (12:00 am)68 % (2:00 pm)
Barometer973.6 hPa1006.8 hPa (11:00 pm) (7:00 pm)
Wind Speed12.4 km/h33.3 km/h (12:00 am)
Wind Gust46.3 km/h (1:00 am)
Weather ElementAverage
Visibility8.5 km
Wind DirectionSSE (147 °)

Weather ElementTotal
Precipitation---
Cooling Degree Days8.7 (Base 18.3)
Growing Degree Days17 (Base 10)
Averaged from 37 records on 12 October, 2013
WEATHER CONDITIONS BREAKOUT
WIND DIRECTION BREAKOUT
WEATHER BY HOUR - 12 OCTOBER, 2013
[ °F ]   °C
Local TimeTemperatureDewpointHumidityBarometerVisibilityWind DirectionWind SpeedGust SpeedPrecipitationEventsConditions
12:00 AM27 °C27 °C100 %996.3 hPa6 kmWSW (240°)33.3 km/hRainLight Rain
1:00 AM26.7 °C26.1 °C96 %995.9 hPa6.4 kmWNW (290°)32.3 km/hRainLight Rain
1:00 AM27 °C26 °C94 %996.3 hPa6 kmWSW (240°)27.8 km/h46.3 km/hRainLight Rain
2:00 AM26.1 °C26.1 °C100 %997 hPa8 kmSSW (200°)18 km/hRainLight Rain
2:00 AM26 °C26 °C100 %996.3 hPa8 kmSSW (200°)16.7 km/hRainLight Rain
3:00 AM26 °C26 °C100 %997 hPa8 kmSE (140°)9.3 km/hRainLight Rain
3:00 AM25.6 °C25.6 °C100 %997.6 hPa8 kmSE (140°)10.8 km/hRainLight Rain
4:00 AM24.4 °C24.4 °C100 %998 hPa4.8 kmSouth (180°)18 km/hRainHeavy Rain
4:00 AM25 °C25 °C100 %998 hPa5 kmSouth (180°)9.3 km/hRainHeavy Rain
5:00 AM24 °C24 °C100 %998 hPa8 kmSE (140°)11.1 km/hRainRain
5:00 AM24.4 °C24.4 °C100 %998.6 hPa8 kmSE (140°)10.8 km/hRainRain
6:00 AM25 °C25 °C100 %999 hPa8 kmSE (140°)13 km/hRainLight Rain
7:00 AM25 °C25 °C100 %6.9 kmSE (140°)14.8 km/hRainLight Rain
8:00 AM25.6 °C25.6 °C99 %1001.4 hPa9.7 kmSE (130°)14.3 km/hRainRain
8:00 AM26 °C26 °C100 %1002 hPa10 kmSE (130°)14.8 km/hRainLight Rain
8:10 AM26 °C26 °C100 %1002 hPa10 kmSE (130°)14.8 km/hRainLight Rain
9:00 AM26 °C26 °C100 %1002 hPa10 kmSE (130°)14.8 km/hRainLight Rain
10:00 AM27 °C26 °C94 %1002 hPa10 kmSE (140°)14.8 km/hRainLight Rain
11:00 AM28 °C26 °C89 %1002 hPa10 kmSE (140°)13 km/hRainLight Rain
11:00 AM28.3 °C26.1 °C83 %1002.7 hPa9.7 kmSE (140°)14.3 km/hRainLight Rain
12:00 PM26 °C26 °C100 %1002 hPa8 kmSSW (210°)9.3 km/hRainLight Rain
1:00 PM29 °C26 °C84 %1002 hPa10 kmSE (140°)9.3 km/hOvercast
2:00 PM29.4 °C24.4 °C68 %1001.7 hPa9.7 kmSSE (160°)14.3 km/hHaze
2:00 PM30 °C24 °C70 %1001 hPa10 kmSSE (160°)13 km/hOvercast
3:00 PM29 °C24 °C74 %1002 hPa10 kmSouth (170°)13 km/hOvercast
3:25 PM28 °C24 °C79 %1002 hPa10 kmSouth (180°)13 km/hRainLight Rain Showers
4:00 PM26 °C25 °C94 %1003 hPa6.9 kmSouth (180°)9.3 km/hRainLight Rain
5:00 PM26 °C25 °C94 %1004.1 hPa6 kmSouth (180°)11.1 km/hRainLight Rain
5:00 PM25.6 °C25.6 °C98 %1004.1 hPa9.7 kmSouth (180°)10.8 km/hRainLight Rain
6:00 PM26 °C26 °C100 %1004.1 hPa9 kmEast (90°)3.7 km/hOvercast
7:00 PM26 °C26 °C100 %1004.1 hPa9 kmVariable3.7 km/hOvercast
8:00 PM25.6 °C25.6 °C100 %1005.4 hPa9.7 kmESE (110°)3.5 km/hHaze
8:00 PM26 °C26 °C100 %1005.1 hPa9 kmVariable3.7 km/hScattered Clouds
9:00 PM26 °C26 °C100 %1006.1 hPa9 kmESE (120°)5.6 km/hMostly Cloudy
10:00 PM26 °C26 °C100 %1006.1 hPa9 kmSE (130°)5.6 km/hMostly Cloudy
11:00 PM25.6 °C25.6 °C100 %1006.8 hPa9.7 kmESE (120°)3.5 km/hHaze
11:00 PM26 °C26 °C100 %1006.1 hPa9 kmVariable1.9 km/hScattered Clouds
Hourly data recorded from RPLL, located 0 kilometers away from Quezon City, Philippines







STORIES FROM OUR PARTNERS